Pacific Assurance — 9V2620 — position and weather

sailwx.info

Track history (hours):
 
Tides and Currents Weather Stations Pressure Air Temp Water Temp Dewpoint Dewpoint Depression Visibility Wind Speed Wind Dir Waves Ship Positions

Pacific Assurance

Last reported at 2018-Apr-27 04:55 UTC. Time now 2018-Apr-27 05:07 UTC.
Position N 31°08' E 122°37'.

Length 300 m; draft 12.5 m.

Type: Cargo ship. MMSI: 565199000.

Date/timePositionNaut miles runAvg speedWind from/ knotsBaromVisibWave heightAir tempDewpointWater temp
2018-Apr-27 04:55N 31°08' E 122°37'0 0.1
2018-Apr-27 04:28N 31°08' E 122°37'0 0.0
2018-Apr-26 22:13N 31°08' E 122°37'0 0.1
2018-Apr-26 21:55N 31°08' E 122°37'0 0.1
2018-Apr-26 20:49N 31°08' E 122°37'0 0.0
2018-Apr-26 19:19N 31°08' E 122°37'0 0.1
2018-Apr-26 18:22N 31°08' E 122°37'0 0.1
2018-Apr-26 17:58N 31°08' E 122°37'0 0.0
2018-Apr-26 17:25N 31°08' E 122°37'0 0.0
2018-Apr-26 16:58N 31°08' E 122°37'0 0.1
2018-Apr-26 16:28N 31°08' E 122°37'0 0.1
2018-Apr-26 15:49N 31°08' E 122°37'0 0.1
2018-Apr-26 15:19N 31°08' E 122°37'0 0.1
2018-Apr-26 14:49N 31°08' E 122°37'0 0.2
2018-Apr-26 14:28N 31°08' E 122°37'0 0.1
2018-Apr-26 13:58N 31°08' E 122°37'0 0.1
2018-Apr-26 11:04N 31°08' E 122°37'0 0.2
2018-Apr-26 10:58N 31°08' E 122°37'0 0.1
2018-Apr-26 10:26N 31°08' E 122°37'0 0.1
2018-Apr-26 07:43N 31°08' E 122°37'0 0.0
2018-Apr-26 07:28N 31°08' E 122°37'0 0.0
2018-Apr-26 04:13N 31°08' E 122°37'0 0.1
2018-Apr-26 03:55N 31°08' E 122°37'0 0.1
2018-Apr-26 03:25N 31°08' E 122°37'0 0.1
2018-Apr-26 02:58N 31°08' E 122°37'0 0.1
2018-Apr-25 22:27N 31°08' E 122°37'0 0.0
2018-Apr-25 21:59N 31°08' E 122°37'0 0.1
2018-Apr-25 20:55N 31°08' E 122°37'0 0.1
2018-Apr-25 18:13N 31°08' E 122°37'0 0.0
2018-Apr-25 17:43N 31°08' E 122°37'0 0.0
2018-Apr-25 16:01N 31°08' E 122°37'0 0.0
2018-Apr-25 15:52N 31°08' E 122°37'0 0.0
2018-Apr-25 15:22N 31°08' E 122°37'0 0.0
2018-Apr-25 14:58N 31°08' E 122°37'0 0.0
2018-Apr-25 14:28N 31°08' E 122°37'  
2018-Apr-23 01:49N 31°08' E 122°37'0 0.0
2018-Apr-22 16:40N 31°08' E 122°37'0 0.1
2018-Apr-22 10:58N 31°08' E 122°37'0 0.1
2018-Apr-22 10:28N 31°08' E 122°37'0 0.0
2018-Apr-22 03:22N 31°08' E 122°37'0 0.0
2018-Apr-21 00:52N 31°08' E 122°37'0 0.0
2018-Apr-20 23:52N 31°08' E 122°37'0 0.0
2018-Apr-20 23:10N 31°08' E 122°37'0 0.0
2018-Apr-20 22:58N 31°08' E 122°37'0 0.1
2018-Apr-20 22:25N 31°08' E 122°37'0 0.0
2018-Apr-20 11:16N 31°08' E 122°37'0 0.1
2018-Apr-20 09:37N 31°08' E 122°38'0 0.0
2018-Apr-20 07:08N 31°08' E 122°37'0 1.1
2018-Apr-20 06:59N 31°08' E 122°37'3 3.5
2018-Apr-20 06:15N 31°07' E 122°40'2 6.0
2018-Apr-20 06:00N 31°07' E 122°42'4 8.9
2018-Apr-20 05:30N 31°06' E 122°47'32 2.3
2018-Apr-19 15:42N 30°40' E 122°25'0 0.0
2018-Apr-19 10:22N 30°40' E 122°25'0 0.0
2018-Apr-19 09:59N 30°40' E 122°25'0 0.0
2018-Apr-19 08:49N 30°40' E 122°25'0 0.0
2018-Apr-19 08:25N 30°40' E 122°25'0 0.0
2018-Apr-19 05:35N 30°40' E 122°25'0 0.0
2018-Apr-19 05:28N 30°40' E 122°25'0 0.0
2018-Apr-19 03:04N 30°40' E 122°25'0 0.0
2018-Apr-19 02:46N 30°40' E 122°25'0 0.0
2018-Apr-19 01:34N 30°40' E 122°25'0 0.1
2018-Apr-19 01:28N 30°40' E 122°25'0 0.0
2018-Apr-19 00:58N 30°40' E 122°25'0 0.0
2018-Apr-18 13:55N 30°40' E 122°25'0 0.0
2018-Apr-18 06:44N 30°40' E 122°25'0 0.0
2018-Apr-18 06:26N 30°40' E 122°25'0 0.0
2018-Apr-18 05:38N 30°40' E 122°25'0 0.0
2018-Apr-18 05:14N 30°40' E 122°25'0 0.9
2018-Apr-18 04:59N 30°40' E 122°25'2 4.1
2018-Apr-18 04:30N 30°39' E 122°27'3 6.9
2018-Apr-18 04:00N 30°37' E 122°31'3 0.2
2018-Apr-17 14:56N 30°37' E 122°33'0 0.0
2018-Apr-17 14:23N 30°37' E 122°33'0 0.0
2018-Apr-17 13:53N 30°37' E 122°33'0 0.1
2018-Apr-17 09:22N 30°36' E 122°34'  
Track history (hours):
 
Tides and Currents Weather Stations Pressure Air Temp Water Temp Dewpoint Dewpoint Depression Visibility Wind Speed Wind Dir Waves Ship Positions

Pacific Assurance

Last reported at 2018-Apr-27 04:55 UTC. Time now 2018-Apr-27 05:07 UTC.
Position N 31°08' E 122°37'.

Length 300 m; draft 12.5 m.

Type: Cargo ship. MMSI: 565199000.

Date/timePositionNaut miles runAvg speedWind from/ knotsBaromVisibWave heightAir tempDewpointWater temp
2018-Apr-27 04:55N 31°08' E 122°37'0 0.1
2018-Apr-27 04:28N 31°08' E 122°37'0 0.0
2018-Apr-26 22:13N 31°08' E 122°37'0 0.1
2018-Apr-26 21:55N 31°08' E 122°37'0 0.1
2018-Apr-26 20:49N 31°08' E 122°37'0 0.0
2018-Apr-26 19:19N 31°08' E 122°37'0 0.1
2018-Apr-26 18:22N 31°08' E 122°37'0 0.1
2018-Apr-26 17:58N 31°08' E 122°37'0 0.0
2018-Apr-26 17:25N 31°08' E 122°37'0 0.0
2018-Apr-26 16:58N 31°08' E 122°37'0 0.1
2018-Apr-26 16:28N 31°08' E 122°37'0 0.1
2018-Apr-26 15:49N 31°08' E 122°37'0 0.1
2018-Apr-26 15:19N 31°08' E 122°37'0 0.1
2018-Apr-26 14:49N 31°08' E 122°37'0 0.2
2018-Apr-26 14:28N 31°08' E 122°37'0 0.1
2018-Apr-26 13:58N 31°08' E 122°37'0 0.1
2018-Apr-26 11:04N 31°08' E 122°37'0 0.2
2018-Apr-26 10:58N 31°08' E 122°37'0 0.1
2018-Apr-26 10:26N 31°08' E 122°37'0 0.1
2018-Apr-26 07:43N 31°08' E 122°37'0 0.0
2018-Apr-26 07:28N 31°08' E 122°37'0 0.0
2018-Apr-26 04:13N 31°08' E 122°37'0 0.1
2018-Apr-26 03:55N 31°08' E 122°37'0 0.1
2018-Apr-26 03:25N 31°08' E 122°37'0 0.1
2018-Apr-26 02:58N 31°08' E 122°37'0 0.1
2018-Apr-25 22:27N 31°08' E 122°37'0 0.0
2018-Apr-25 21:59N 31°08' E 122°37'0 0.1
2018-Apr-25 20:55N 31°08' E 122°37'0 0.1
2018-Apr-25 18:13N 31°08' E 122°37'0 0.0
2018-Apr-25 17:43N 31°08' E 122°37'0 0.0
2018-Apr-25 16:01N 31°08' E 122°37'0 0.0
2018-Apr-25 15:52N 31°08' E 122°37'0 0.0
2018-Apr-25 15:22N 31°08' E 122°37'0 0.0
2018-Apr-25 14:58N 31°08' E 122°37'0 0.0
2018-Apr-25 14:28N 31°08' E 122°37'  
2018-Apr-23 01:49N 31°08' E 122°37'0 0.0
2018-Apr-22 16:40N 31°08' E 122°37'0 0.1
2018-Apr-22 10:58N 31°08' E 122°37'0 0.1
2018-Apr-22 10:28N 31°08' E 122°37'0 0.0
2018-Apr-22 03:22N 31°08' E 122°37'0 0.0
2018-Apr-21 00:52N 31°08' E 122°37'0 0.0
2018-Apr-20 23:52N 31°08' E 122°37'0 0.0
2018-Apr-20 23:10N 31°08' E 122°37'0 0.0
2018-Apr-20 22:58N 31°08' E 122°37'0 0.1
2018-Apr-20 22:25N 31°08' E 122°37'0 0.0
2018-Apr-20 11:16N 31°08' E 122°37'0 0.1
2018-Apr-20 09:37N 31°08' E 122°38'0 0.0
2018-Apr-20 07:08N 31°08' E 122°37'0 1.1
2018-Apr-20 06:59N 31°08' E 122°37'3 3.5
2018-Apr-20 06:15N 31°07' E 122°40'2 6.0
2018-Apr-20 06:00N 31°07' E 122°42'4 8.9
2018-Apr-20 05:30N 31°06' E 122°47'32 2.3
2018-Apr-19 15:42N 30°40' E 122°25'0 0.0
2018-Apr-19 10:22N 30°40' E 122°25'0 0.0
2018-Apr-19 09:59N 30°40' E 122°25'0 0.0
2018-Apr-19 08:49N 30°40' E 122°25'0 0.0
2018-Apr-19 08:25N 30°40' E 122°25'0 0.0
2018-Apr-19 05:35N 30°40' E 122°25'0 0.0
2018-Apr-19 05:28N 30°40' E 122°25'0 0.0
2018-Apr-19 03:04N 30°40' E 122°25'0 0.0
2018-Apr-19 02:46N 30°40' E 122°25'0 0.0
2018-Apr-19 01:34N 30°40' E 122°25'0 0.1
2018-Apr-19 01:28N 30°40' E 122°25'0 0.0
2018-Apr-19 00:58N 30°40' E 122°25'0 0.0
2018-Apr-18 13:55N 30°40' E 122°25'0 0.0
2018-Apr-18 06:44N 30°40' E 122°25'0 0.0
2018-Apr-18 06:26N 30°40' E 122°25'0 0.0
2018-Apr-18 05:38N 30°40' E 122°25'0 0.0
2018-Apr-18 05:14N 30°40' E 122°25'0 0.9
2018-Apr-18 04:59N 30°40' E 122°25'2 4.1
2018-Apr-18 04:30N 30°39' E 122°27'3 6.9
2018-Apr-18 04:00N 30°37' E 122°31'3 0.2
2018-Apr-17 14:56N 30°37' E 122°33'0 0.0
2018-Apr-17 14:23N 30°37' E 122°33'0 0.0
2018-Apr-17 13:53N 30°37' E 122°33'0 0.1
2018-Apr-17 09:22N 30°36' E 122°34'  

Dump ship's entire track history